South Daytona Beach, Florida
Current Conditions -  °F | °C
As of 8:53 AM on Thursday 23 Oct 2014 (Local Time) from KDAB Reporting Station
Few Clouds Few Clouds  
Wind Chill: 67°   Ceiling: Unl
Heat Index: 67°   Visibility: 10mi
Dew Point: 57°   Wind: 3mph
Humidity: 70%   Direction: 300°WNW
Pressure: 30.02"   Gusts: NA
Location:  29.1638°N, 81.0283°W
Report Text: KDAB 231253Z 30003KT 10SM FEW040 FEW150 19/14 A3002 RMK AO2 SLP163 T01940139
Loading
Personal Weather Stations






























Interactive Weather Map
Tropical Storm Tracking
New forecast layout! Learn more

10-Day Weather Forecast

Advertisements
Track Severe Weather on mobile